Terminal Aerodrome Forecast
Issued by NWS

Home | Current Version | Previous Version | Text Only | Print | Product List | Glossary On
Versions: 1 2 3 4 5 6 7 8 9 10 11 12 13 14 15 16 17 18 19 20 21 22 23 24 25 26 27 28
405
FTUS45 KGGW 260028 RRA
TAFGDV
TAF
KGDV 260028Z 2600/2624 VRB04KT P6SM BKN015
     FM260200 VRB05KT P6SM SCT017
     FM261400 VRB06KT 2SM BR SCT024
     FM261800 20008KT P6SM FEW080=

USA.gov is the U.S. government's official web portal to all federal, state and local government web resources and services.